sensor_id;sensor_type;location;lat;lon;timestamp;pressure;altitude;pressure_sealevel;temperature;humidity
38197;BME280;26543;51.976;4.616;2023-09-19T00:01:28;52814.97;;;-140.72;100.00
38197;BME280;26543;51.976;4.616;2023-09-19T00:03:56;52788.59;;;-140.72;100.00
38197;BME280;26543;51.976;4.616;2023-09-19T00:06:23;52851.50;;;-140.72;100.00
38197;BME280;26543;51.976;4.616;2023-09-19T00:08:51;52800.75;;;-140.72;100.00
38197;BME280;26543;51.976;4.616;2023-09-19T00:11:16;52800.75;;;-140.72;100.00
38197;BME280;26543;51.976;4.616;2023-09-19T00:13:41;52837.28;;;-140.72;100.00
38197;BME280;26543;51.976;4.616;2023-09-19T00:16:10;52772.34;;;-140.72;100.00
38197;BME280;26543;51.976;4.616;2023-09-19T00:18:36;52796.72;;;-140.72;100.00
38197;BME280;26543;51.976;4.616;2023-09-19T00:21:01;52786.56;;;-140.72;100.00
38197;BME280;26543;51.976;4.616;2023-09-19T00:23:29;52843.38;;;-140.72;100.00
38197;BME280;26543;51.976;4.616;2023-09-19T00:25:58;52812.94;;;-140.72;100.00
38197;BME280;26543;51.976;4.616;2023-09-19T00:28:23;52823.09;;;-140.72;100.00
38197;BME280;26543;51.976;4.616;2023-09-19T00:30:48;52804.81;;;-140.72;100.00
38197;BME280;26543;51.976;4.616;2023-09-19T00:33:17;52817.00;;;-140.72;100.00
38197;BME280;26543;51.976;4.616;2023-09-19T00:36:02;52808.88;;;-140.72;100.00
38197;BME280;26543;51.976;4.616;2023-09-19T00:38:30;52780.47;;;-140.72;100.00
38197;BME280;26543;51.976;4.616;2023-09-19T00:40:57;52798.72;;;-140.72;100.00
38197;BME280;26543;51.976;4.616;2023-09-19T00:43:22;52776.41;;;-140.72;100.00
38197;BME280;26543;51.976;4.616;2023-09-19T00:45:49;52784.53;;;-140.72;100.00
38197;BME280;26543;51.976;4.616;2023-09-19T00:48:16;52798.72;;;-140.72;100.00
38197;BME280;26543;51.976;4.616;2023-09-19T00:50:42;52788.59;;;-140.72;100.00
38197;BME280;26543;51.976;4.616;2023-09-19T00:53:09;52823.09;;;-140.72;100.00
38197;BME280;26543;51.976;4.616;2023-09-19T00:55:34;52843.38;;;-140.72;100.00
38197;BME280;26543;51.976;4.616;2023-09-19T00:58:02;52810.91;;;-140.72;100.00
38197;BME280;26543;51.976;4.616;2023-09-19T01:00:28;52798.72;;;-140.72;100.00
38197;BME280;26543;51.976;4.616;2023-09-19T01:02:53;52794.69;;;-140.72;100.00
38197;BME280;26543;51.976;4.616;2023-09-19T01:05:19;52800.75;;;-140.72;100.00
38197;BME280;26543;51.976;4.616;2023-09-19T01:07:44;52829.19;;;-140.72;100.00
38197;BME280;26543;51.976;4.616;2023-09-19T01:10:10;52788.59;;;-140.72;100.00
38197;BME280;26543;51.976;4.616;2023-09-19T01:17:45;52794.69;;;-140.72;100.00
38197;BME280;26543;51.976;4.616;2023-09-19T01:20:15;52760.19;;;-140.72;100.00
38197;BME280;26543;51.976;4.616;2023-09-19T01:23:05;52786.56;;;-140.72;100.00
38197;BME280;26543;51.976;4.616;2023-09-19T01:25:49;52821.06;;;-140.72;100.00
38197;BME280;26543;51.976;4.616;2023-09-19T01:28:32;52796.72;;;-140.72;100.00
38197;BME280;26543;51.976;4.616;2023-09-19T01:31:02;52825.13;;;-140.72;100.00
38197;BME280;26543;51.976;4.616;2023-09-19T01:33:28;52782.50;;;-140.72;100.00
38197;BME280;26543;51.976;4.616;2023-09-19T01:35:58;52802.78;;;-140.72;100.00
38197;BME280;26543;51.976;4.616;2023-09-19T01:38:23;52745.97;;;-140.72;100.00
38197;BME280;26543;51.976;4.616;2023-09-19T01:41:00;52798.72;;;-140.72;100.00
38197;BME280;26543;51.976;4.616;2023-09-19T01:43:41;52778.44;;;-140.72;100.00
38197;BME280;26543;51.976;4.616;2023-09-19T01:46:28;52776.41;;;-140.72;100.00
38197;BME280;26543;51.976;4.616;2023-09-19T01:51:30;52776.41;;;-140.72;100.00
38197;BME280;26543;51.976;4.616;2023-09-19T01:54:04;52784.53;;;-140.72;100.00
38197;BME280;26543;51.976;4.616;2023-09-19T01:56:34;52768.28;;;-140.72;100.00
38197;BME280;26543;51.976;4.616;2023-09-19T01:59:03;52788.59;;;-140.72;100.00
38197;BME280;26543;51.976;4.616;2023-09-19T02:01:29;52772.34;;;-140.72;100.00
38197;BME280;26543;51.976;4.616;2023-09-19T02:03:56;52810.91;;;-140.72;100.00
38197;BME280;26543;51.976;4.616;2023-09-19T02:06:21;52772.34;;;-140.72;100.00
38197;BME280;26543;51.976;4.616;2023-09-19T02:08:54;52827.16;;;-140.72;100.00
38197;BME280;26543;51.976;4.616;2023-09-19T02:11:19;52802.78;;;-140.72;100.00
38197;BME280;26543;51.976;4.616;2023-09-19T02:13:44;52764.25;;;-140.72;100.00
38197;BME280;26543;51.976;4.616;2023-09-19T02:16:10;52796.72;;;-140.72;100.00
38197;BME280;26543;51.976;4.616;2023-09-19T02:18:36;52760.19;;;-140.72;100.00
38197;BME280;26543;51.976;4.616;2023-09-19T02:21:01;52796.72;;;-140.72;100.00
38197;BME280;26543;51.976;4.616;2023-09-19T02:23:27;52808.88;;;-140.72;100.00
38197;BME280;26543;51.976;4.616;2023-09-19T02:25:53;52792.66;;;-140.72;100.00
38197;BME280;26543;51.976;4.616;2023-09-19T02:28:18;52792.66;;;-140.72;100.00
38197;BME280;26543;51.976;4.616;2023-09-19T02:30:43;52804.81;;;-140.72;100.00
38197;BME280;26543;51.976;4.616;2023-09-19T02:33:12;52804.81;;;-140.72;100.00
38197;BME280;26543;51.976;4.616;2023-09-19T02:35:38;52758.16;;;-140.72;100.00
38197;BME280;26543;51.976;4.616;2023-09-19T02:38:03;52786.56;;;-140.72;100.00
38197;BME280;26543;51.976;4.616;2023-09-19T02:40:31;52786.56;;;-140.72;100.00
38197;BME280;26543;51.976;4.616;2023-09-19T02:42:56;52784.53;;;-140.72;100.00
38197;BME280;26543;51.976;4.616;2023-09-19T02:45:24;52817.00;;;-140.72;100.00
38197;BME280;26543;51.976;4.616;2023-09-19T02:47:50;52802.78;;;-140.72;100.00
38197;BME280;26543;51.976;4.616;2023-09-19T02:50:15;52835.25;;;-140.72;100.00
38197;BME280;26543;51.976;4.616;2023-09-19T02:52:44;52784.53;;;-140.72;100.00
38197;BME280;26543;51.976;4.616;2023-09-19T02:55:10;52812.94;;;-140.72;100.00
38197;BME280;26543;51.976;4.616;2023-09-19T02:57:35;52796.72;;;-140.72;100.00
38197;BME280;26543;51.976;4.616;2023-09-19T03:00:01;52819.03;;;-140.72;100.00
38197;BME280;26543;51.976;4.616;2023-09-19T03:02:27;52790.63;;;-140.72;100.00
38197;BME280;26543;51.976;4.616;2023-09-19T03:04:53;52778.44;;;-140.72;100.00
38197;BME280;26543;51.976;4.616;2023-09-19T03:07:18;52768.28;;;-140.72;100.00
38197;BME280;26543;51.976;4.616;2023-09-19T03:09:43;52794.69;;;-140.72;100.00
38197;BME280;26543;51.976;4.616;2023-09-19T03:12:10;52788.59;;;-140.72;100.00
38197;BME280;26543;51.976;4.616;2023-09-19T03:14:35;52784.53;;;-140.72;100.00
38197;BME280;26543;51.976;4.616;2023-09-19T03:17:00;52792.66;;;-140.72;100.00
38197;BME280;26543;51.976;4.616;2023-09-19T03:19:26;52804.81;;;-140.72;100.00
38197;BME280;26543;51.976;4.616;2023-09-19T03:21:51;52819.03;;;-140.72;100.00
38197;BME280;26543;51.976;4.616;2023-09-19T03:24:16;52794.69;;;-140.72;100.00
38197;BME280;26543;51.976;4.616;2023-09-19T03:26:42;52784.53;;;-140.72;100.00
38197;BME280;26543;51.976;4.616;2023-09-19T03:29:07;52780.47;;;-140.72;100.00
38197;BME280;26543;51.976;4.616;2023-09-19T03:31:33;52819.03;;;-140.72;100.00
38197;BME280;26543;51.976;4.616;2023-09-19T03:34:01;52790.63;;;-140.72;100.00
38197;BME280;26543;51.976;4.616;2023-09-19T03:36:28;52784.53;;;-140.72;100.00
38197;BME280;26543;51.976;4.616;2023-09-19T03:38:53;52808.88;;;-140.72;100.00
38197;BME280;26543;51.976;4.616;2023-09-19T03:41:18;52819.03;;;-140.72;100.00
38197;BME280;26543;51.976;4.616;2023-09-19T03:43:44;52812.94;;;-140.72;100.00
38197;BME280;26543;51.976;4.616;2023-09-19T03:46:10;52800.75;;;-140.72;100.00
38197;BME280;26543;51.976;4.616;2023-09-19T03:48:37;52812.94;;;-140.72;100.00
38197;BME280;26543;51.976;4.616;2023-09-19T03:51:03;52821.06;;;-140.72;100.00
38197;BME280;26543;51.976;4.616;2023-09-19T03:53:28;52829.19;;;-140.72;100.00
38197;BME280;26543;51.976;4.616;2023-09-19T03:55:53;52786.56;;;-140.72;100.00
38197;BME280;26543;51.976;4.616;2023-09-19T03:58:19;52831.19;;;-140.72;100.00
38197;BME280;26543;51.976;4.616;2023-09-19T04:00:45;52849.47;;;-140.72;100.00
38197;BME280;26543;51.976;4.616;2023-09-19T04:03:10;52825.13;;;-140.72;100.00
38197;BME280;26543;51.976;4.616;2023-09-19T04:05:44;52804.81;;;-140.72;100.00
38197;BME280;26543;51.976;4.616;2023-09-19T04:08:09;52796.72;;;-140.72;100.00
38197;BME280;26543;51.976;4.616;2023-09-19T04:10:34;52819.03;;;-140.72;100.00
38197;BME280;26543;51.976;4.616;2023-09-19T04:13:00;52780.47;;;-140.72;100.00
38197;BME280;26543;51.976;4.616;2023-09-19T04:15:26;52794.69;;;-140.72;100.00
38197;BME280;26543;51.976;4.616;2023-09-19T04:17:51;52798.72;;;-140.72;100.00
38197;BME280;26543;51.976;4.616;2023-09-19T04:20:17;52802.78;;;-140.72;100.00
38197;BME280;26543;51.976;4.616;2023-09-19T04:22:43;52829.19;;;-140.72;100.00
38197;BME280;26543;51.976;4.616;2023-09-19T04:25:08;52819.03;;;-140.72;100.00
38197;BME280;26543;51.976;4.616;2023-09-19T04:27:33;52808.88;;;-140.72;100.00
38197;BME280;26543;51.976;4.616;2023-09-19T04:29:59;52784.53;;;-140.72;100.00
38197;BME280;26543;51.976;4.616;2023-09-19T04:32:28;52800.75;;;-140.72;100.00
38197;BME280;26543;51.976;4.616;2023-09-19T04:34:53;52804.81;;;-140.72;100.00
38197;BME280;26543;51.976;4.616;2023-09-19T04:37:18;52833.22;;;-140.72;100.00
38197;BME280;26543;51.976;4.616;2023-09-19T04:39:44;52853.53;;;-140.72;100.00
38197;BME280;26543;51.976;4.616;2023-09-19T04:42:12;52814.97;;;-140.72;100.00
38197;BME280;26543;51.976;4.616;2023-09-19T04:44:39;52802.78;;;-140.72;100.00
38197;BME280;26543;51.976;4.616;2023-09-19T04:47:05;52829.19;;;-140.72;100.00
38197;BME280;26543;51.976;4.616;2023-09-19T04:49:31;52841.34;;;-140.72;100.00
38197;BME280;26543;51.976;4.616;2023-09-19T04:51:56;52808.88;;;-140.72;100.00
38197;BME280;26543;51.976;4.616;2023-09-19T04:54:21;52821.06;;;-140.72;100.00
38197;BME280;26543;51.976;4.616;2023-09-19T04:56:47;52819.03;;;-140.72;100.00
38197;BME280;26543;51.976;4.616;2023-09-19T04:59:12;52788.59;;;-140.72;100.00
38197;BME280;26543;51.976;4.616;2023-09-19T05:01:37;52796.72;;;-140.72;100.00
38197;BME280;26543;51.976;4.616;2023-09-19T05:04:03;52796.72;;;-140.72;100.00
38197;BME280;26543;51.976;4.616;2023-09-19T05:06:44;52855.56;;;-140.72;100.00
38197;BME280;26543;51.976;4.616;2023-09-19T05:09:10;52812.94;;;-140.72;100.00
38197;BME280;26543;51.976;4.616;2023-09-19T05:11:35;52814.97;;;-140.72;100.00
38197;BME280;26543;51.976;4.616;2023-09-19T05:14:01;52808.88;;;-140.72;100.00
38197;BME280;26543;51.976;4.616;2023-09-19T05:16:29;52827.16;;;-140.72;100.00
38197;BME280;26543;51.976;4.616;2023-09-19T05:18:56;52853.53;;;-140.72;100.00
38197;BME280;26543;51.976;4.616;2023-09-19T05:21:21;52867.72;;;-140.72;100.00
38197;BME280;26543;51.976;4.616;2023-09-19T05:23:47;52821.06;;;-140.72;100.00
38197;BME280;26543;51.976;4.616;2023-09-19T05:26:12;52845.41;;;-140.72;100.00
38197;BME280;26543;51.976;4.616;2023-09-19T05:28:38;52829.19;;;-140.72;100.00
38197;BME280;26543;51.976;4.616;2023-09-19T05:31:03;52800.75;;;-140.72;100.00
38197;BME280;26543;51.976;4.616;2023-09-19T05:33:28;52814.97;;;-140.72;100.00
38197;BME280;26543;51.976;4.616;2023-09-19T05:35:56;52843.38;;;-140.72;100.00
38197;BME280;26543;51.976;4.616;2023-09-19T05:38:21;52829.19;;;-140.72;100.00
38197;BME280;26543;51.976;4.616;2023-09-19T05:40:46;52823.09;;;-140.72;100.00
38197;BME280;26543;51.976;4.616;2023-09-19T05:43:12;52847.44;;;-140.72;100.00
38197;BME280;26543;51.976;4.616;2023-09-19T05:45:39;52812.94;;;-140.72;100.00
38197;BME280;26543;51.976;4.616;2023-09-19T05:48:09;52833.22;;;-140.72;100.00
38197;BME280;26543;51.976;4.616;2023-09-19T05:50:35;52810.91;;;-140.72;100.00
38197;BME280;26543;51.976;4.616;2023-09-19T05:53:01;52806.84;;;-140.72;100.00
38197;BME280;26543;51.976;4.616;2023-09-19T05:55:26;52835.25;;;-140.72;100.00
38197;BME280;26543;51.976;4.616;2023-09-19T05:57:53;52796.72;;;-140.72;100.00
38197;BME280;26543;51.976;4.616;2023-09-19T06:00:22;52796.72;;;-140.72;100.00
38197;BME280;26543;51.976;4.616;2023-09-19T06:02:51;52814.97;;;-140.72;100.00
38197;BME280;26543;51.976;4.616;2023-09-19T06:05:17;52817.00;;;-140.72;100.00
38197;BME280;26543;51.976;4.616;2023-09-19T06:07:42;52825.13;;;-140.72;100.00
38197;BME280;26543;51.976;4.616;2023-09-19T06:10:08;52788.59;;;-140.72;100.00
38197;BME280;26543;51.976;4.616;2023-09-19T06:12:38;52855.56;;;-140.72;100.00
38197;BME280;26543;51.976;4.616;2023-09-19T06:15:04;52829.19;;;-140.72;100.00
38197;BME280;26543;51.976;4.616;2023-09-19T06:17:30;52829.19;;;-140.72;100.00
38197;BME280;26543;51.976;4.616;2023-09-19T06:19:56;52845.41;;;-140.72;100.00
38197;BME280;26543;51.976;4.616;2023-09-19T06:22:21;52808.88;;;-140.72;100.00
38197;BME280;26543;51.976;4.616;2023-09-19T06:24:46;52812.94;;;-140.72;100.00
38197;BME280;26543;51.976;4.616;2023-09-19T06:27:12;52794.69;;;-140.72;100.00
38197;BME280;26543;51.976;4.616;2023-09-19T06:29:37;52788.59;;;-140.72;100.00
38197;BME280;26543;51.976;4.616;2023-09-19T06:32:12;52796.72;;;-140.72;100.00
38197;BME280;26543;51.976;4.616;2023-09-19T06:34:37;52821.06;;;-140.72;100.00
38197;BME280;26543;51.976;4.616;2023-09-19T06:37:08;52814.97;;;-140.72;100.00
38197;BME280;26543;51.976;4.616;2023-09-19T06:39:33;52792.66;;;-140.72;100.00
38197;BME280;26543;51.976;4.616;2023-09-19T06:41:59;52792.66;;;-140.72;100.00
38197;BME280;26543;51.976;4.616;2023-09-19T06:44:26;52817.00;;;-140.72;100.00
38197;BME280;26543;51.976;4.616;2023-09-19T06:46:52;52819.03;;;-140.72;100.00
38197;BME280;26543;51.976;4.616;2023-09-19T06:49:18;52790.63;;;-140.72;100.00
38197;BME280;26543;51.976;4.616;2023-09-19T06:51:43;52817.00;;;-140.72;100.00
38197;BME280;26543;51.976;4.616;2023-09-19T06:54:08;52833.22;;;-140.72;100.00
38197;BME280;26543;51.976;4.616;2023-09-19T06:56:34;52792.66;;;-140.72;100.00
38197;BME280;26543;51.976;4.616;2023-09-19T06:58:59;52790.63;;;-140.72;100.00
38197;BME280;26543;51.976;4.616;2023-09-19T07:01:26;52776.41;;;-140.72;100.00
38197;BME280;26543;51.976;4.616;2023-09-19T07:03:52;52774.38;;;-140.72;100.00
38197;BME280;26543;51.976;4.616;2023-09-19T07:06:18;52788.59;;;-140.72;100.00
38197;BME280;26543;51.976;4.616;2023-09-19T07:08:43;52752.06;;;-140.72;100.00
38197;BME280;26543;51.976;4.616;2023-09-19T07:11:10;52778.44;;;-140.72;100.00
38197;BME280;26543;51.976;4.616;2023-09-19T07:13:37;52798.72;;;-140.72;100.00
38197;BME280;26543;51.976;4.616;2023-09-19T07:16:03;52782.50;;;-140.72;100.00
38197;BME280;26543;51.976;4.616;2023-09-19T07:18:28;52776.41;;;-140.72;100.00
38197;BME280;26543;51.976;4.616;2023-09-19T07:20:56;52770.31;;;-140.72;100.00
38197;BME280;26543;51.976;4.616;2023-09-19T07:23:24;52764.25;;;-140.72;100.00
38197;BME280;26543;51.976;4.616;2023-09-19T07:25:51;52772.34;;;-140.72;100.00
38197;BME280;26543;51.976;4.616;2023-09-19T07:28:16;52727.72;;;-140.72;100.00
38197;BME280;26543;51.976;4.616;2023-09-19T07:30:41;52764.25;;;-140.72;100.00
38197;BME280;26543;51.976;4.616;2023-09-19T07:33:07;52748.00;;;-140.72;100.00
38197;BME280;26543;51.976;4.616;2023-09-19T07:35:32;52754.09;;;-140.72;100.00
38197;BME280;26543;51.976;4.616;2023-09-19T07:37:58;52768.28;;;-140.72;100.00
38197;BME280;26543;51.976;4.616;2023-09-19T07:40:26;52745.97;;;-140.72;100.00
38197;BME280;26543;51.976;4.616;2023-09-19T07:42:52;52756.13;;;-140.72;100.00
38197;BME280;26543;51.976;4.616;2023-09-19T07:45:17;52780.47;;;-140.72;100.00
38197;BME280;26543;51.976;4.616;2023-09-19T07:47:48;52766.25;;;-140.72;100.00
38197;BME280;26543;51.976;4.616;2023-09-19T07:50:14;52756.13;;;-140.72;100.00
38197;BME280;26543;51.976;4.616;2023-09-19T07:52:41;52768.28;;;-140.72;100.00
38197;BME280;26543;51.976;4.616;2023-09-19T07:55:06;52731.75;;;-140.72;100.00
38197;BME280;26543;51.976;4.616;2023-09-19T07:57:36;52748.00;;;-140.72;100.00
38197;BME280;26543;51.976;4.616;2023-09-19T08:00:02;52764.25;;;-140.72;100.00
38197;BME280;26543;51.976;4.616;2023-09-19T08:02:30;52772.34;;;-140.72;100.00
38197;BME280;26543;51.976;4.616;2023-09-19T08:04:55;52737.84;;;-140.72;100.00
38197;BME280;26543;51.976;4.616;2023-09-19T08:07:22;52731.75;;;-140.72;100.00
38197;BME280;26543;51.976;4.616;2023-09-19T08:09:48;52695.25;;;-140.72;100.00
38197;BME280;26543;51.976;4.616;2023-09-19T08:12:13;52741.91;;;-140.72;100.00
38197;BME280;26543;51.976;4.616;2023-09-19T08:14:39;52735.81;;;-140.72;100.00
38197;BME280;26543;51.976;4.616;2023-09-19T08:17:06;52707.41;;;-140.72;100.00
38197;BME280;26543;51.976;4.616;2023-09-19T08:19:33;52760.19;;;-140.72;100.00
38197;BME280;26543;51.976;4.616;2023-09-19T08:21:58;52725.69;;;-140.72;100.00
38197;BME280;26543;51.976;4.616;2023-09-19T08:24:27;52715.53;;;-140.72;100.00
38197;BME280;26543;51.976;4.616;2023-09-19T08:26:53;52715.53;;;-140.72;100.00
38197;BME280;26543;51.976;4.616;2023-09-19T08:29:19;52727.72;;;-140.72;100.00
38197;BME280;26543;51.976;4.616;2023-09-19T08:31:45;52723.66;;;-140.72;100.00
38197;BME280;26543;51.976;4.616;2023-09-19T08:34:10;52695.25;;;-140.72;100.00
38197;BME280;26543;51.976;4.616;2023-09-19T08:36:35;52699.31;;;-140.72;100.00
38197;BME280;26543;51.976;4.616;2023-09-19T08:39:02;52711.47;;;-140.72;100.00
38197;BME280;26543;51.976;4.616;2023-09-19T08:41:27;52705.38;;;-140.72;100.00
38197;BME280;26543;51.976;4.616;2023-09-19T08:43:53;52719.59;;;-140.72;100.00
38197;BME280;26543;51.976;4.616;2023-09-19T08:46:18;52695.25;;;-140.72;100.00
38197;BME280;26543;51.976;4.616;2023-09-19T08:48:46;52703.34;;;-140.72;100.00
38197;BME280;26543;51.976;4.616;2023-09-19T08:51:17;52731.75;;;-140.72;100.00
38197;BME280;26543;51.976;4.616;2023-09-19T08:56:10;52717.56;;;-140.72;100.00
38197;BME280;26543;51.976;4.616;2023-09-19T08:58:39;52705.38;;;-140.72;100.00
38197;BME280;26543;51.976;4.616;2023-09-19T09:01:06;52705.38;;;-140.72;100.00
38197;BME280;26543;51.976;4.616;2023-09-19T09:03:32;52679.00;;;-140.72;100.00
38197;BME280;26543;51.976;4.616;2023-09-19T09:05:57;52642.47;;;-140.72;100.00
38197;BME280;26543;51.976;4.616;2023-09-19T09:08:23;52681.03;;;-140.72;100.00
38197;BME280;26543;51.976;4.616;2023-09-19T09:10:49;52676.97;;;-140.72;100.00
38197;BME280;26543;51.976;4.616;2023-09-19T09:13:15;52634.38;;;-140.72;100.00
38197;BME280;26543;51.976;4.616;2023-09-19T09:15:41;52654.66;;;-140.72;100.00
38197;BME280;26543;51.976;4.616;2023-09-19T09:18:09;52664.81;;;-140.72;100.00
38197;BME280;26543;51.976;4.616;2023-09-19T09:20:34;52630.31;;;-140.72;100.00
38197;BME280;26543;51.976;4.616;2023-09-19T09:23:01;52632.34;;;-140.72;100.00
38197;BME280;26543;51.976;4.616;2023-09-19T09:28:12;52650.59;;;-140.72;100.00
38197;BME280;26543;51.976;4.616;2023-09-19T09:30:44;52668.84;;;-140.72;100.00
38197;BME280;26543;51.976;4.616;2023-09-19T09:33:13;52674.94;;;-140.72;100.00
38197;BME280;26543;51.976;4.616;2023-09-19T09:35:58;52709.44;;;-140.72;100.00
38197;BME280;26543;51.976;4.616;2023-09-19T09:38:29;52715.53;;;-140.72;100.00
38197;BME280;26543;51.976;4.616;2023-09-19T09:40:58;52658.72;;;-140.72;100.00
38197;BME280;26543;51.976;4.616;2023-09-19T09:43:27;52638.41;;;-140.72;100.00
38197;BME280;26543;51.976;4.616;2023-09-19T09:46:26;52652.63;;;-140.72;100.00
38197;BME280;26543;51.976;4.616;2023-09-19T09:51:38;52634.38;;;-140.72;100.00
38197;BME280;26543;51.976;4.616;2023-09-19T09:54:11;52634.38;;;-140.72;100.00
38197;BME280;26543;51.976;4.616;2023-09-19T09:56:51;52652.63;;;-140.72;100.00
38197;BME280;26543;51.976;4.616;2023-09-19T09:59:17;52618.13;;;-140.72;100.00
38197;BME280;26543;51.976;4.616;2023-09-19T10:01:46;52603.94;;;-140.72;100.00
38197;BME280;26543;51.976;4.616;2023-09-19T10:04:15;52650.59;;;-140.72;100.00
38197;BME280;26543;51.976;4.616;2023-09-19T10:06:53;52610.00;;;-140.72;100.00
38197;BME280;26543;51.976;4.616;2023-09-19T10:09:19;52599.88;;;-140.72;100.00
38197;BME280;26543;51.976;4.616;2023-09-19T10:12:02;52612.03;;;-140.72;100.00
38197;BME280;26543;51.976;4.616;2023-09-19T10:14:29;52622.19;;;-140.72;100.00
38197;BME280;26543;51.976;4.616;2023-09-19T10:16:56;52601.91;;;-140.72;100.00
38197;BME280;26543;51.976;4.616;2023-09-19T10:22:24;52638.41;;;-140.72;100.00
38197;BME280;26543;51.976;4.616;2023-09-19T10:24:51;52618.13;;;-140.72;100.00
38197;BME280;26543;51.976;4.616;2023-09-19T10:27:18;52599.88;;;-140.72;100.00
38197;BME280;26543;51.976;4.616;2023-09-19T10:29:44;52612.03;;;-140.72;100.00
38197;BME280;26543;51.976;4.616;2023-09-19T10:32:12;52605.94;;;-140.72;100.00
38197;BME280;26543;51.976;4.616;2023-09-19T10:34:43;52520.72;;;-140.72;100.00
38197;BME280;26543;51.976;4.616;2023-09-19T10:37:10;52536.97;;;-140.72;100.00
38197;BME280;26543;51.976;4.616;2023-09-19T10:39:37;52605.94;;;-140.72;100.00
38197;BME280;26543;51.976;4.616;2023-09-19T10:42:05;52601.91;;;-140.72;100.00
38197;BME280;26543;51.976;4.616;2023-09-19T10:44:32;52541.03;;;-140.72;100.00
38197;BME280;26543;51.976;4.616;2023-09-19T10:46:57;52577.53;;;-140.72;100.00
38197;BME280;26543;51.976;4.616;2023-09-19T10:49:23;52612.03;;;-140.72;100.00
38197;BME280;26543;51.976;4.616;2023-09-19T10:51:50;52618.13;;;-140.72;100.00
38197;BME280;26543;51.976;4.616;2023-09-19T10:54:19;52630.31;;;-140.72;100.00
38197;BME280;26543;51.976;4.616;2023-09-19T10:56:51;52577.53;;;-140.72;100.00
38197;BME280;26543;51.976;4.616;2023-09-19T10:59:18;52569.44;;;-140.72;100.00
38197;BME280;26543;51.976;4.616;2023-09-19T11:01:44;52577.53;;;-140.72;100.00
38197;BME280;26543;51.976;4.616;2023-09-19T11:04:32;52589.72;;;-140.72;100.00
38197;BME280;26543;51.976;4.616;2023-09-19T11:07:09;52553.19;;;-140.72;100.00
38197;BME280;26543;51.976;4.616;2023-09-19T11:09:42;52612.03;;;-140.72;100.00
38197;BME280;26543;51.976;4.616;2023-09-19T11:12:08;52638.41;;;-140.72;100.00
38197;BME280;26543;51.976;4.616;2023-09-19T11:14:37;52561.31;;;-140.72;100.00
38197;BME280;26543;51.976;4.616;2023-09-19T11:22:24;52502.47;;;-140.72;100.00
38197;BME280;26543;51.976;4.616;2023-09-19T11:24:51;52516.66;;;-140.72;100.00
38197;BME280;26543;51.976;4.616;2023-09-19T11:27:16;52581.59;;;-140.72;100.00
38197;BME280;26543;51.976;4.616;2023-09-19T11:29:43;52614.06;;;-140.72;100.00
38197;BME280;26543;51.976;4.616;2023-09-19T11:32:08;52612.03;;;-140.72;100.00
38197;BME280;26543;51.976;4.616;2023-09-19T11:34:41;52632.34;;;-140.72;100.00
38197;BME280;26543;51.976;4.616;2023-09-19T11:39:36;52691.19;;;-140.72;100.00
38197;BME280;26543;51.976;4.616;2023-09-19T11:42:17;52634.38;;;-140.72;100.00
38197;BME280;26543;51.976;4.616;2023-09-19T11:44:48;52646.53;;;-140.72;100.00
38197;BME280;26543;51.976;4.616;2023-09-19T11:47:17;52648.56;;;-140.72;100.00
38197;BME280;26543;51.976;4.616;2023-09-19T11:49:44;52674.94;;;-140.72;100.00
38197;BME280;26543;51.976;4.616;2023-09-19T11:52:09;52679.00;;;-140.72;100.00
38197;BME280;26543;51.976;4.616;2023-09-19T11:54:35;52614.06;;;-140.72;100.00
38197;BME280;26543;51.976;4.616;2023-09-19T11:57:02;52628.28;;;-140.72;100.00
38197;BME280;26543;51.976;4.616;2023-09-19T11:59:28;52622.19;;;-140.72;100.00
38197;BME280;26543;51.976;4.616;2023-09-19T12:01:54;52650.59;;;-140.72;100.00
38197;BME280;26543;51.976;4.616;2023-09-19T12:04:33;52632.34;;;-140.72;100.00
38197;BME280;26543;51.976;4.616;2023-09-19T12:06:58;52626.25;;;-140.72;100.00
38197;BME280;26543;51.976;4.616;2023-09-19T12:09:24;52599.88;;;-140.72;100.00
38197;BME280;26543;51.976;4.616;2023-09-19T12:11:50;52610.00;;;-140.72;100.00
38197;BME280;26543;51.976;4.616;2023-09-19T12:14:25;52616.09;;;-140.72;100.00
38197;BME280;26543;51.976;4.616;2023-09-19T12:16:57;52620.16;;;-140.72;100.00
38197;BME280;26543;51.976;4.616;2023-09-19T12:19:23;52626.25;;;-140.72;100.00
38197;BME280;26543;51.976;4.616;2023-09-19T12:21:55;52607.97;;;-140.72;100.00
38197;BME280;26543;51.976;4.616;2023-09-19T12:24:27;52575.50;;;-140.72;100.00
38197;BME280;26543;51.976;4.616;2023-09-19T12:26:59;52581.59;;;-140.72;100.00
38197;BME280;26543;51.976;4.616;2023-09-19T12:29:26;52593.78;;;-140.72;100.00
38197;BME280;26543;51.976;4.616;2023-09-19T12:31:53;52581.59;;;-140.72;100.00
38197;BME280;26543;51.976;4.616;2023-09-19T12:34:24;52585.66;;;-140.72;100.00
38197;BME280;26543;51.976;4.616;2023-09-19T12:37:11;52539.00;;;-140.72;100.00
38197;BME280;26543;51.976;4.616;2023-09-19T12:39:37;52496.38;;;-140.72;100.00
38197;BME280;26543;51.976;4.616;2023-09-19T12:42:03;52425.34;;;-140.72;100.00
38197;BME280;26543;51.976;4.616;2023-09-19T12:44:29;52445.66;;;-140.72;100.00
38197;BME280;26543;51.976;4.616;2023-09-19T12:46:54;52482.16;;;-140.72;100.00
38197;BME280;26543;51.976;4.616;2023-09-19T12:49:24;52413.19;;;-140.72;100.00
38197;BME280;26543;51.976;4.616;2023-09-19T12:51:49;52443.63;;;-140.72;100.00
38197;BME280;26543;51.976;4.616;2023-09-19T12:54:19;52388.84;;;-140.72;100.00
38197;BME280;26543;51.976;4.616;2023-09-19T12:56:45;52346.22;;;-140.72;100.00
38197;BME280;26543;51.976;4.616;2023-09-19T12:59:12;52465.94;;;-140.72;100.00